sensor_id;sensor_type;location;lat;lon;timestamp;temperature;humidity
13231;DHT22;6681;53.254;10.398;2022-08-21T00:00:51;16.70;99.90
13231;DHT22;6681;53.254;10.398;2022-08-21T00:03:16;16.70;99.90
13231;DHT22;6681;53.254;10.398;2022-08-21T00:05:47;16.70;99.90
13231;DHT22;6681;53.254;10.398;2022-08-21T00:08:12;16.60;99.90
13231;DHT22;6681;53.254;10.398;2022-08-21T00:10:42;16.60;99.90
13231;DHT22;6681;53.254;10.398;2022-08-21T00:13:09;17.20;99.90
13231;DHT22;6681;53.254;10.398;2022-08-21T00:15:36;16.60;99.90
13231;DHT22;6681;53.254;10.398;2022-08-21T00:18:04;16.60;99.90
13231;DHT22;6681;53.254;10.398;2022-08-21T00:20:31;16.50;99.90
13231;DHT22;6681;53.254;10.398;2022-08-21T00:22:57;16.50;99.90
13231;DHT22;6681;53.254;10.398;2022-08-21T00:25:23;16.50;99.90
13231;DHT22;6681;53.254;10.398;2022-08-21T00:27:48;16.50;99.90
13231;DHT22;6681;53.254;10.398;2022-08-21T00:30:16;16.40;99.90
13231;DHT22;6681;53.254;10.398;2022-08-21T00:32:43;16.40;99.90
13231;DHT22;6681;53.254;10.398;2022-08-21T00:35:11;16.40;99.90
13231;DHT22;6681;53.254;10.398;2022-08-21T00:37:38;16.30;99.90
13231;DHT22;6681;53.254;10.398;2022-08-21T00:40:06;16.30;99.90
13231;DHT22;6681;53.254;10.398;2022-08-21T00:42:32;16.30;99.90
13231;DHT22;6681;53.254;10.398;2022-08-21T00:44:58;16.20;99.90
13231;DHT22;6681;53.254;10.398;2022-08-21T00:47:24;16.20;99.90
13231;DHT22;6681;53.254;10.398;2022-08-21T00:49:50;16.20;99.90
13231;DHT22;6681;53.254;10.398;2022-08-21T00:52:20;16.20;99.90
13231;DHT22;6681;53.254;10.398;2022-08-21T00:54:48;16.20;99.90
13231;DHT22;6681;53.254;10.398;2022-08-21T00:57:19;16.20;99.90
13231;DHT22;6681;53.254;10.398;2022-08-21T00:59:48;16.10;99.90
13231;DHT22;6681;53.254;10.398;2022-08-21T01:02:15;16.10;99.90
13231;DHT22;6681;53.254;10.398;2022-08-21T01:04:41;16.10;99.90
13231;DHT22;6681;53.254;10.398;2022-08-21T01:07:08;16.10;99.90
13231;DHT22;6681;53.254;10.398;2022-08-21T01:09:34;16.10;99.90
13231;DHT22;6681;53.254;10.398;2022-08-21T01:12:00;16.00;99.90
13231;DHT22;6681;53.254;10.398;2022-08-21T01:14:26;15.90;99.90
13231;DHT22;6681;53.254;10.398;2022-08-21T01:16:52;15.90;99.90
13231;DHT22;6681;53.254;10.398;2022-08-21T01:19:20;15.90;99.90
13231;DHT22;6681;53.254;10.398;2022-08-21T01:21:46;15.90;99.90
13231;DHT22;6681;53.254;10.398;2022-08-21T01:24:12;15.90;99.90
13231;DHT22;6681;53.254;10.398;2022-08-21T01:26:37;15.90;99.90
13231;DHT22;6681;53.254;10.398;2022-08-21T01:31:48;15.80;99.90
13231;DHT22;6681;53.254;10.398;2022-08-21T01:34:14;15.80;99.90
13231;DHT22;6681;53.254;10.398;2022-08-21T01:36:41;15.80;99.90
13231;DHT22;6681;53.254;10.398;2022-08-21T01:39:07;15.70;99.90
13231;DHT22;6681;53.254;10.398;2022-08-21T01:41:33;15.70;99.90
13231;DHT22;6681;53.254;10.398;2022-08-21T01:43:58;15.70;99.90
13231;DHT22;6681;53.254;10.398;2022-08-21T01:46:24;15.70;99.90
13231;DHT22;6681;53.254;10.398;2022-08-21T01:48:50;15.60;99.90
13231;DHT22;6681;53.254;10.398;2022-08-21T01:51:16;15.60;99.90
13231;DHT22;6681;53.254;10.398;2022-08-21T01:53:42;15.50;99.90
13231;DHT22;6681;53.254;10.398;2022-08-21T01:56:11;15.50;99.90
13231;DHT22;6681;53.254;10.398;2022-08-21T01:58:37;15.50;99.90
13231;DHT22;6681;53.254;10.398;2022-08-21T02:01:03;15.50;99.90
13231;DHT22;6681;53.254;10.398;2022-08-21T02:03:29;15.50;99.90
13231;DHT22;6681;53.254;10.398;2022-08-21T02:05:55;15.50;99.90
13231;DHT22;6681;53.254;10.398;2022-08-21T02:08:22;15.50;99.90
13231;DHT22;6681;53.254;10.398;2022-08-21T02:10:49;15.70;99.90
13231;DHT22;6681;53.254;10.398;2022-08-21T02:13:16;15.50;99.90
13231;DHT22;6681;53.254;10.398;2022-08-21T02:15:42;15.40;99.90
13231;DHT22;6681;53.254;10.398;2022-08-21T02:18:08;15.70;99.90
13231;DHT22;6681;53.254;10.398;2022-08-21T02:20:40;15.40;99.90
13231;DHT22;6681;53.254;10.398;2022-08-21T02:23:07;15.30;99.90
13231;DHT22;6681;53.254;10.398;2022-08-21T02:25:34;15.30;99.90
13231;DHT22;6681;53.254;10.398;2022-08-21T02:28:04;15.30;99.90
13231;DHT22;6681;53.254;10.398;2022-08-21T02:30:32;15.30;99.90
13231;DHT22;6681;53.254;10.398;2022-08-21T02:32:58;15.30;99.90
13231;DHT22;6681;53.254;10.398;2022-08-21T02:35:25;15.30;99.90
13231;DHT22;6681;53.254;10.398;2022-08-21T02:37:57;15.20;99.90
13231;DHT22;6681;53.254;10.398;2022-08-21T02:40:25;15.20;99.90
13231;DHT22;6681;53.254;10.398;2022-08-21T02:42:52;15.20;99.90
13231;DHT22;6681;53.254;10.398;2022-08-21T02:45:18;15.20;99.90
13231;DHT22;6681;53.254;10.398;2022-08-21T02:47:55;15.10;99.90
13231;DHT22;6681;53.254;10.398;2022-08-21T02:50:27;15.10;99.90
13231;DHT22;6681;53.254;10.398;2022-08-21T02:52:54;15.10;99.90
13231;DHT22;6681;53.254;10.398;2022-08-21T02:55:21;15.00;99.90
13231;DHT22;6681;53.254;10.398;2022-08-21T02:57:47;15.10;99.90
13231;DHT22;6681;53.254;10.398;2022-08-21T03:00:14;15.00;99.90
13231;DHT22;6681;53.254;10.398;2022-08-21T03:02:40;15.10;99.90
13231;DHT22;6681;53.254;10.398;2022-08-21T03:05:09;15.10;99.90
13231;DHT22;6681;53.254;10.398;2022-08-21T03:07:36;15.00;99.90
13231;DHT22;6681;53.254;10.398;2022-08-21T03:10:03;15.00;99.90
13231;DHT22;6681;53.254;10.398;2022-08-21T03:12:29;15.00;99.90
13231;DHT22;6681;53.254;10.398;2022-08-21T03:14:55;15.00;99.90
13231;DHT22;6681;53.254;10.398;2022-08-21T03:17:20;14.90;99.90
13231;DHT22;6681;53.254;10.398;2022-08-21T03:19:46;14.90;99.90
13231;DHT22;6681;53.254;10.398;2022-08-21T03:22:11;14.90;99.90
13231;DHT22;6681;53.254;10.398;2022-08-21T03:24:37;14.90;99.90
13231;DHT22;6681;53.254;10.398;2022-08-21T03:27:03;14.90;99.90
13231;DHT22;6681;53.254;10.398;2022-08-21T03:29:29;14.90;99.90
13231;DHT22;6681;53.254;10.398;2022-08-21T03:31:54;14.90;99.90
13231;DHT22;6681;53.254;10.398;2022-08-21T03:34:20;14.80;99.90
13231;DHT22;6681;53.254;10.398;2022-08-21T03:36:47;14.70;99.90
13231;DHT22;6681;53.254;10.398;2022-08-21T03:39:13;14.70;99.90
13231;DHT22;6681;53.254;10.398;2022-08-21T03:41:39;14.70;99.90
13231;DHT22;6681;53.254;10.398;2022-08-21T03:44:04;14.80;99.90
13231;DHT22;6681;53.254;10.398;2022-08-21T03:46:30;14.70;99.90
13231;DHT22;6681;53.254;10.398;2022-08-21T03:48:56;14.70;99.90
13231;DHT22;6681;53.254;10.398;2022-08-21T03:51:21;14.70;99.90
13231;DHT22;6681;53.254;10.398;2022-08-21T03:53:47;14.60;99.90
13231;DHT22;6681;53.254;10.398;2022-08-21T03:56:13;14.60;99.90
13231;DHT22;6681;53.254;10.398;2022-08-21T03:58:38;14.60;99.90
13231;DHT22;6681;53.254;10.398;2022-08-21T04:01:05;14.50;99.90
13231;DHT22;6681;53.254;10.398;2022-08-21T04:03:31;14.50;99.90
13231;DHT22;6681;53.254;10.398;2022-08-21T04:05:58;14.50;99.90
13231;DHT22;6681;53.254;10.398;2022-08-21T04:08:24;14.60;99.90
13231;DHT22;6681;53.254;10.398;2022-08-21T04:10:53;14.50;99.90
13231;DHT22;6681;53.254;10.398;2022-08-21T04:13:20;14.50;99.90
13231;DHT22;6681;53.254;10.398;2022-08-21T04:15:46;14.50;99.90
13231;DHT22;6681;53.254;10.398;2022-08-21T04:18:12;14.40;99.90
13231;DHT22;6681;53.254;10.398;2022-08-21T04:20:39;14.40;99.90
13231;DHT22;6681;53.254;10.398;2022-08-21T04:23:05;14.40;99.90
13231;DHT22;6681;53.254;10.398;2022-08-21T04:25:31;14.40;99.90
13231;DHT22;6681;53.254;10.398;2022-08-21T04:27:57;14.40;99.90
13231;DHT22;6681;53.254;10.398;2022-08-21T04:30:23;14.40;99.90
13231;DHT22;6681;53.254;10.398;2022-08-21T04:32:50;14.50;99.90
13231;DHT22;6681;53.254;10.398;2022-08-21T04:35:19;14.40;99.90
13231;DHT22;6681;53.254;10.398;2022-08-21T04:37:45;14.40;99.90
13231;DHT22;6681;53.254;10.398;2022-08-21T04:40:13;14.40;99.90
13231;DHT22;6681;53.254;10.398;2022-08-21T04:42:50;14.40;99.90
13231;DHT22;6681;53.254;10.398;2022-08-21T04:45:22;14.40;99.90
13231;DHT22;6681;53.254;10.398;2022-08-21T04:47:50;14.40;99.90
13231;DHT22;6681;53.254;10.398;2022-08-21T04:50:16;14.50;99.90
13231;DHT22;6681;53.254;10.398;2022-08-21T04:52:43;14.50;99.90
13231;DHT22;6681;53.254;10.398;2022-08-21T04:55:09;14.50;99.90
13231;DHT22;6681;53.254;10.398;2022-08-21T04:57:36;14.40;99.90
13231;DHT22;6681;53.254;10.398;2022-08-21T05:00:03;14.40;99.90
13231;DHT22;6681;53.254;10.398;2022-08-21T05:02:31;14.40;99.90
13231;DHT22;6681;53.254;10.398;2022-08-21T05:04:59;14.40;99.90
13231;DHT22;6681;53.254;10.398;2022-08-21T05:07:28;14.40;99.90
13231;DHT22;6681;53.254;10.398;2022-08-21T05:09:55;14.30;99.90
13231;DHT22;6681;53.254;10.398;2022-08-21T05:12:21;14.30;99.90
13231;DHT22;6681;53.254;10.398;2022-08-21T05:14:47;14.30;99.90
13231;DHT22;6681;53.254;10.398;2022-08-21T05:17:13;14.30;99.90
13231;DHT22;6681;53.254;10.398;2022-08-21T05:19:39;14.40;99.90
13231;DHT22;6681;53.254;10.398;2022-08-21T05:22:05;14.30;99.90
13231;DHT22;6681;53.254;10.398;2022-08-21T05:24:31;14.30;99.90
13231;DHT22;6681;53.254;10.398;2022-08-21T05:26:57;14.30;99.90
13231;DHT22;6681;53.254;10.398;2022-08-21T05:29:24;14.30;99.90
13231;DHT22;6681;53.254;10.398;2022-08-21T05:31:50;14.30;99.90
13231;DHT22;6681;53.254;10.398;2022-08-21T05:34:21;14.30;99.90
13231;DHT22;6681;53.254;10.398;2022-08-21T05:36:47;14.20;99.90
13231;DHT22;6681;53.254;10.398;2022-08-21T05:39:13;14.20;99.90
13231;DHT22;6681;53.254;10.398;2022-08-21T05:41:39;14.40;99.90
13231;DHT22;6681;53.254;10.398;2022-08-21T05:44:05;14.30;99.90
13231;DHT22;6681;53.254;10.398;2022-08-21T05:46:30;14.20;99.90
13231;DHT22;6681;53.254;10.398;2022-08-21T05:48:56;14.20;99.90
13231;DHT22;6681;53.254;10.398;2022-08-21T05:51:21;14.20;99.90
13231;DHT22;6681;53.254;10.398;2022-08-21T05:53:47;14.20;99.90
13231;DHT22;6681;53.254;10.398;2022-08-21T05:56:13;14.20;99.90
13231;DHT22;6681;53.254;10.398;2022-08-21T05:58:39;14.30;99.90
13231;DHT22;6681;53.254;10.398;2022-08-21T06:01:05;14.30;99.90
13231;DHT22;6681;53.254;10.398;2022-08-21T06:03:34;14.30;99.90
13231;DHT22;6681;53.254;10.398;2022-08-21T06:06:01;14.40;99.90
13231;DHT22;6681;53.254;10.398;2022-08-21T06:08:27;14.40;99.90
13231;DHT22;6681;53.254;10.398;2022-08-21T06:10:54;14.70;99.90
13231;DHT22;6681;53.254;10.398;2022-08-21T06:13:20;14.50;99.90
13231;DHT22;6681;53.254;10.398;2022-08-21T06:15:47;14.50;99.90
13231;DHT22;6681;53.254;10.398;2022-08-21T06:18:13;14.60;99.90
13231;DHT22;6681;53.254;10.398;2022-08-21T06:20:39;14.60;99.90
13231;DHT22;6681;53.254;10.398;2022-08-21T06:23:05;14.60;99.90
13231;DHT22;6681;53.254;10.398;2022-08-21T06:25:31;14.60;99.90
13231;DHT22;6681;53.254;10.398;2022-08-21T06:28:05;14.60;99.90
13231;DHT22;6681;53.254;10.398;2022-08-21T06:30:31;14.70;99.90
13231;DHT22;6681;53.254;10.398;2022-08-21T06:32:57;14.70;99.90
13231;DHT22;6681;53.254;10.398;2022-08-21T06:35:23;14.80;99.90
13231;DHT22;6681;53.254;10.398;2022-08-21T06:37:50;14.80;99.90
13231;DHT22;6681;53.254;10.398;2022-08-21T06:40:16;14.90;99.90
13231;DHT22;6681;53.254;10.398;2022-08-21T06:42:41;15.00;99.90
13231;DHT22;6681;53.254;10.398;2022-08-21T06:45:08;15.00;99.90
13231;DHT22;6681;53.254;10.398;2022-08-21T06:47:33;15.00;99.90
13231;DHT22;6681;53.254;10.398;2022-08-21T06:49:59;15.10;99.90
13231;DHT22;6681;53.254;10.398;2022-08-21T06:52:24;15.10;99.90
13231;DHT22;6681;53.254;10.398;2022-08-21T06:54:50;15.20;99.90
13231;DHT22;6681;53.254;10.398;2022-08-21T06:57:16;15.20;99.90
13231;DHT22;6681;53.254;10.398;2022-08-21T06:59:41;15.30;99.90
13231;DHT22;6681;53.254;10.398;2022-08-21T07:02:07;15.40;99.90
13231;DHT22;6681;53.254;10.398;2022-08-21T07:04:33;15.50;99.90
13231;DHT22;6681;53.254;10.398;2022-08-21T07:06:58;15.60;99.90
13231;DHT22;6681;53.254;10.398;2022-08-21T07:09:24;15.80;99.90
13231;DHT22;6681;53.254;10.398;2022-08-21T07:11:53;15.90;99.90
13231;DHT22;6681;53.254;10.398;2022-08-21T07:14:19;16.10;99.90
13231;DHT22;6681;53.254;10.398;2022-08-21T07:16:45;16.30;99.90
13231;DHT22;6681;53.254;10.398;2022-08-21T07:19:10;16.40;99.90
13231;DHT22;6681;53.254;10.398;2022-08-21T07:21:36;16.50;99.90
13231;DHT22;6681;53.254;10.398;2022-08-21T07:24:02;16.70;99.90
13231;DHT22;6681;53.254;10.398;2022-08-21T07:26:28;16.80;99.90
13231;DHT22;6681;53.254;10.398;2022-08-21T07:28:53;17.00;99.90
13231;DHT22;6681;53.254;10.398;2022-08-21T07:31:21;17.20;99.90
13231;DHT22;6681;53.254;10.398;2022-08-21T07:33:47;17.30;99.90
13231;DHT22;6681;53.254;10.398;2022-08-21T07:36:13;17.40;99.90
13231;DHT22;6681;53.254;10.398;2022-08-21T07:38:39;17.60;99.90
13231;DHT22;6681;53.254;10.398;2022-08-21T07:41:13;17.70;99.90
13231;DHT22;6681;53.254;10.398;2022-08-21T07:43:39;17.80;99.90
13231;DHT22;6681;53.254;10.398;2022-08-21T07:46:05;17.90;99.90
13231;DHT22;6681;53.254;10.398;2022-08-21T07:48:30;18.00;99.90
13231;DHT22;6681;53.254;10.398;2022-08-21T07:51:05;18.20;99.90
13231;DHT22;6681;53.254;10.398;2022-08-21T07:53:31;18.30;99.90
13231;DHT22;6681;53.254;10.398;2022-08-21T07:55:58;18.50;99.90
13231;DHT22;6681;53.254;10.398;2022-08-21T07:58:23;18.40;99.90
13231;DHT22;6681;53.254;10.398;2022-08-21T08:00:49;18.40;99.90
13231;DHT22;6681;53.254;10.398;2022-08-21T08:03:15;18.40;99.90
13231;DHT22;6681;53.254;10.398;2022-08-21T08:05:41;18.50;99.90
13231;DHT22;6681;53.254;10.398;2022-08-21T08:08:07;18.40;99.90
13231;DHT22;6681;53.254;10.398;2022-08-21T08:10:32;18.40;99.90
13231;DHT22;6681;53.254;10.398;2022-08-21T08:12:58;18.60;99.90
13231;DHT22;6681;53.254;10.398;2022-08-21T08:15:26;18.70;99.90
13231;DHT22;6681;53.254;10.398;2022-08-21T08:17:53;19.00;99.90
13231;DHT22;6681;53.254;10.398;2022-08-21T08:20:20;19.10;99.90
13231;DHT22;6681;53.254;10.398;2022-08-21T08:22:47;19.30;99.90
13231;DHT22;6681;53.254;10.398;2022-08-21T08:25:14;19.50;99.90
13231;DHT22;6681;53.254;10.398;2022-08-21T08:27:41;19.60;99.90
13231;DHT22;6681;53.254;10.398;2022-08-21T08:30:09;19.70;99.90
13231;DHT22;6681;53.254;10.398;2022-08-21T08:32:36;19.80;99.90
13231;DHT22;6681;53.254;10.398;2022-08-21T08:35:02;19.90;99.90
13231;DHT22;6681;53.254;10.398;2022-08-21T08:37:28;20.00;99.90
13231;DHT22;6681;53.254;10.398;2022-08-21T08:39:54;20.10;99.90
13231;DHT22;6681;53.254;10.398;2022-08-21T08:42:28;20.20;99.90
13231;DHT22;6681;53.254;10.398;2022-08-21T08:45:02;20.30;99.90
13231;DHT22;6681;53.254;10.398;2022-08-21T08:47:30;20.30;99.90
13231;DHT22;6681;53.254;10.398;2022-08-21T08:50:07;20.40;99.90
13231;DHT22;6681;53.254;10.398;2022-08-21T08:52:39;20.50;99.90
13231;DHT22;6681;53.254;10.398;2022-08-21T08:55:32;20.60;99.90
13231;DHT22;6681;53.254;10.398;2022-08-21T08:57:58;20.60;99.90
13231;DHT22;6681;53.254;10.398;2022-08-21T09:00:24;20.60;99.90
13231;DHT22;6681;53.254;10.398;2022-08-21T09:02:56;20.60;99.90
13231;DHT22;6681;53.254;10.398;2022-08-21T09:05:26;20.60;99.90
13231;DHT22;6681;53.254;10.398;2022-08-21T09:14:01;21.20;99.90
13231;DHT22;6681;53.254;10.398;2022-08-21T09:17:57;21.30;99.90
13231;DHT22;6681;53.254;10.398;2022-08-21T09:22:36;21.50;99.90
13231;DHT22;6681;53.254;10.398;2022-08-21T09:25:27;21.70;99.90
13231;DHT22;6681;53.254;10.398;2022-08-21T09:27:54;21.70;99.90
13231;DHT22;6681;53.254;10.398;2022-08-21T09:30:26;21.70;99.90
13231;DHT22;6681;53.254;10.398;2022-08-21T09:32:52;21.70;99.90
13231;DHT22;6681;53.254;10.398;2022-08-21T09:35:20;21.70;99.90
13231;DHT22;6681;53.254;10.398;2022-08-21T09:38:07;21.70;99.90
13231;DHT22;6681;53.254;10.398;2022-08-21T09:40:43;21.70;99.90
13231;DHT22;6681;53.254;10.398;2022-08-21T09:45:40;22.00;99.90
13231;DHT22;6681;53.254;10.398;2022-08-21T09:48:20;22.10;99.90
13231;DHT22;6681;53.254;10.398;2022-08-21T09:50:47;22.20;99.90
13231;DHT22;6681;53.254;10.398;2022-08-21T09:55:55;22.50;99.90
13231;DHT22;6681;53.254;10.398;2022-08-21T09:58:45;22.60;99.90
13231;DHT22;6681;53.254;10.398;2022-08-21T10:01:17;22.70;99.90
13231;DHT22;6681;53.254;10.398;2022-08-21T10:03:44;22.70;99.90
13231;DHT22;6681;53.254;10.398;2022-08-21T10:06:22;22.90;99.90
13231;DHT22;6681;53.254;10.398;2022-08-21T10:08:48;22.90;99.90
13231;DHT22;6681;53.254;10.398;2022-08-21T10:11:16;23.00;99.90
13231;DHT22;6681;53.254;10.398;2022-08-21T10:21:59;23.30;99.90
13231;DHT22;6681;53.254;10.398;2022-08-21T10:24:57;23.40;99.90
13231;DHT22;6681;53.254;10.398;2022-08-21T10:30:19;23.20;99.90
13231;DHT22;6681;53.254;10.398;2022-08-21T10:35:44;23.00;99.90
13231;DHT22;6681;53.254;10.398;2022-08-21T10:41:27;22.90;99.90
13231;DHT22;6681;53.254;10.398;2022-08-21T10:44:30;23.00;99.90
13231;DHT22;6681;53.254;10.398;2022-08-21T10:47:24;23.10;99.90
13231;DHT22;6681;53.254;10.398;2022-08-21T10:50:03;23.20;99.90
13231;DHT22;6681;53.254;10.398;2022-08-21T10:55:36;23.40;99.90
13231;DHT22;6681;53.254;10.398;2022-08-21T10:58:09;23.50;99.90
13231;DHT22;6681;53.254;10.398;2022-08-21T11:00:51;23.60;99.90
13231;DHT22;6681;53.254;10.398;2022-08-21T11:03:42;23.50;99.90
13231;DHT22;6681;53.254;10.398;2022-08-21T11:06:27;23.40;99.90
13231;DHT22;6681;53.254;10.398;2022-08-21T11:09:11;23.40;99.90
13231;DHT22;6681;53.254;10.398;2022-08-21T11:11:44;23.30;99.90
13231;DHT22;6681;53.254;10.398;2022-08-21T11:14:25;23.20;99.90
13231;DHT22;6681;53.254;10.398;2022-08-21T11:17:06;23.20;99.90
13231;DHT22;6681;53.254;10.398;2022-08-21T11:22:31;23.40;99.90
13231;DHT22;6681;53.254;10.398;2022-08-21T11:25:33;23.70;99.90
13231;DHT22;6681;53.254;10.398;2022-08-21T11:28:13;23.90;99.90
13231;DHT22;6681;53.254;10.398;2022-08-21T11:33:41;24.10;99.90
13231;DHT22;6681;53.254;10.398;2022-08-21T11:36:19;24.20;99.90
13231;DHT22;6681;53.254;10.398;2022-08-21T11:48:32;24.90;99.90
13231;DHT22;6681;53.254;10.398;2022-08-21T11:51:18;25.00;99.90
13231;DHT22;6681;53.254;10.398;2022-08-21T11:54:33;25.20;99.90
13231;DHT22;6681;53.254;10.398;2022-08-21T11:56:51;25.30;99.90
13231;DHT22;6681;53.254;10.398;2022-08-21T11:59:35;25.50;99.90
13231;DHT22;6681;53.254;10.398;2022-08-21T12:02:09;25.60;99.90
13231;DHT22;6681;53.254;10.398;2022-08-21T12:04:46;25.60;99.90
13231;DHT22;6681;53.254;10.398;2022-08-21T12:07:29;25.50;99.90
13231;DHT22;6681;53.254;10.398;2022-08-21T12:09:56;25.50;99.90
13231;DHT22;6681;53.254;10.398;2022-08-21T12:12:34;25.60;99.90
13231;DHT22;6681;53.254;10.398;2022-08-21T12:15:27;25.50;99.90
13231;DHT22;6681;53.254;10.398;2022-08-21T12:18:05;25.60;99.90
13231;DHT22;6681;53.254;10.398;2022-08-21T12:20:44;25.70;99.90
13231;DHT22;6681;53.254;10.398;2022-08-21T12:23:45;25.90;99.90
13231;DHT22;6681;53.254;10.398;2022-08-21T12:26:20;26.00;99.90
13231;DHT22;6681;53.254;10.398;2022-08-21T12:28:47;26.20;99.90
13231;DHT22;6681;53.254;10.398;2022-08-21T12:31:27;26.40;99.90
13231;DHT22;6681;53.254;10.398;2022-08-21T12:34:01;26.50;99.90
13231;DHT22;6681;53.254;10.398;2022-08-21T12:36:48;26.60;99.90
13231;DHT22;6681;53.254;10.398;2022-08-21T12:39:27;26.70;99.90
13231;DHT22;6681;53.254;10.398;2022-08-21T12:42:24;26.90;99.90
13231;DHT22;6681;53.254;10.398;2022-08-21T12:45:00;27.00;99.90
13231;DHT22;6681;53.254;10.398;2022-08-21T12:47:33;27.20;99.80
13231;DHT22;6681;53.254;10.398;2022-08-21T12:50:08;27.30;98.00
13231;DHT22;6681;53.254;10.398;2022-08-21T12:52:39;27.40;99.90
13231;DHT22;6681;53.254;10.398;2022-08-21T12:55:10;27.70;99.90
13231;DHT22;6681;53.254;10.398;2022-08-21T12:57:36;27.80;98.80
13231;DHT22;6681;53.254;10.398;2022-08-21T13:00:07;27.90;98.40
13231;DHT22;6681;53.254;10.398;2022-08-21T13:02:43;28.00;98.60
13231;DHT22;6681;53.254;10.398;2022-08-21T13:05:19;27.80;97.20
13231;DHT22;6681;53.254;10.398;2022-08-21T13:07:49;27.70;99.30
13231;DHT22;6681;53.254;10.398;2022-08-21T13:10:24;27.70;99.40
13231;DHT22;6681;53.254;10.398;2022-08-21T13:13:04;27.80;99.00
13231;DHT22;6681;53.254;10.398;2022-08-21T13:15:41;27.80;99.90
13231;DHT22;6681;53.254;10.398;2022-08-21T13:18:07;28.00;99.50
13231;DHT22;6681;53.254;10.398;2022-08-21T13:20:38;28.10;99.50
13231;DHT22;6681;53.254;10.398;2022-08-21T13:23:31;28.10;97.80
13231;DHT22;6681;53.254;10.398;2022-08-21T13:25:57;28.10;97.30
13231;DHT22;6681;53.254;10.398;2022-08-21T13:28:23;28.30;98.80
13231;DHT22;6681;53.254;10.398;2022-08-21T13:30:51;28.40;97.70
13231;DHT22;6681;53.254;10.398;2022-08-21T13:33:22;28.50;98.90
13231;DHT22;6681;53.254;10.398;2022-08-21T13:36:00;28.40;96.00
13231;DHT22;6681;53.254;10.398;2022-08-21T13:38:29;28.50;96.00
13231;DHT22;6681;53.254;10.398;2022-08-21T13:41:03;28.70;99.00
13231;DHT22;6681;53.254;10.398;2022-08-21T13:43:35;28.80;97.50
13231;DHT22;6681;53.254;10.398;2022-08-21T13:46:06;28.70;94.70
13231;DHT22;6681;53.254;10.398;2022-08-21T13:48:34;28.30;96.20
13231;DHT22;6681;53.254;10.398;2022-08-21T13:51:00;28.20;96.40
13231;DHT22;6681;53.254;10.398;2022-08-21T13:55:55;28.50;98.10
13231;DHT22;6681;53.254;10.398;2022-08-21T13:58:30;28.60;96.30
13231;DHT22;6681;53.254;10.398;2022-08-21T14:00:58;28.50;96.30
13231;DHT22;6681;53.254;10.398;2022-08-21T14:03:38;28.70;96.70
13231;DHT22;6681;53.254;10.398;2022-08-21T14:06:17;28.80;96.80
13231;DHT22;6681;53.254;10.398;2022-08-21T14:08:53;29.00;93.80
13231;DHT22;6681;53.254;10.398;2022-08-21T14:11:21;29.00;95.70
13231;DHT22;6681;53.254;10.398;2022-08-21T14:13:51;28.70;94.30
13231;DHT22;6681;53.254;10.398;2022-08-21T14:16:23;28.40;95.50
13231;DHT22;6681;53.254;10.398;2022-08-21T14:18:52;28.00;94.90
13231;DHT22;6681;53.254;10.398;2022-08-21T14:21:44;27.80;96.70
13231;DHT22;6681;53.254;10.398;2022-08-21T14:24:11;27.90;97.40
13231;DHT22;6681;53.254;10.398;2022-08-21T14:26:55;27.80;96.00
13231;DHT22;6681;53.254;10.398;2022-08-21T14:29:24;27.60;96.30
13231;DHT22;6681;53.254;10.398;2022-08-21T14:31:57;27.50;97.30
13231;DHT22;6681;53.254;10.398;2022-08-21T14:34:28;27.50;97.90
13231;DHT22;6681;53.254;10.398;2022-08-21T14:36:55;27.70;98.30
13231;DHT22;6681;53.254;10.398;2022-08-21T14:39:20;27.80;96.70
13231;DHT22;6681;53.254;10.398;2022-08-21T14:41:47;27.80;98.90
13231;DHT22;6681;53.254;10.398;2022-08-21T14:44:14;27.90;98.30
13231;DHT22;6681;53.254;10.398;2022-08-21T14:46:41;27.90;96.40
13231;DHT22;6681;53.254;10.398;2022-08-21T14:49:06;28.10;99.90
13231;DHT22;6681;53.254;10.398;2022-08-21T14:51:33;28.10;96.20
13231;DHT22;6681;53.254;10.398;2022-08-21T14:53:58;28.00;95.70
13231;DHT22;6681;53.254;10.398;2022-08-21T14:56:24;27.80;96.40
13231;DHT22;6681;53.254;10.398;2022-08-21T14:58:51;27.80;97.70
13231;DHT22;6681;53.254;10.398;2022-08-21T15:01:18;27.70;95.60
13231;DHT22;6681;53.254;10.398;2022-08-21T15:03:45;27.50;94.80
13231;DHT22;6681;53.254;10.398;2022-08-21T15:06:12;27.70;97.10
13231;DHT22;6681;53.254;10.398;2022-08-21T15:08:38;28.00;95.50
13231;DHT22;6681;53.254;10.398;2022-08-21T15:11:05;27.90;94.30
13231;DHT22;6681;53.254;10.398;2022-08-21T15:13:31;28.30;94.80
13231;DHT22;6681;53.254;10.398;2022-08-21T15:15:57;28.30;94.70
13231;DHT22;6681;53.254;10.398;2022-08-21T15:18:26;28.40;95.70
13231;DHT22;6681;53.254;10.398;2022-08-21T15:20:52;28.30;91.80
13231;DHT22;6681;53.254;10.398;2022-08-21T15:23:18;28.10;94.00
13231;DHT22;6681;53.254;10.398;2022-08-21T15:25:46;27.90;94.40
13231;DHT22;6681;53.254;10.398;2022-08-21T15:28:13;27.80;95.30
13231;DHT22;6681;53.254;10.398;2022-08-21T15:30:40;27.70;94.90
13231;DHT22;6681;53.254;10.398;2022-08-21T15:33:07;27.60;95.70
13231;DHT22;6681;53.254;10.398;2022-08-21T15:35:33;27.40;98.00
13231;DHT22;6681;53.254;10.398;2022-08-21T15:37:59;27.40;96.30
13231;DHT22;6681;53.254;10.398;2022-08-21T15:40:26;27.40;97.10
13231;DHT22;6681;53.254;10.398;2022-08-21T15:42:57;27.40;97.10
13231;DHT22;6681;53.254;10.398;2022-08-21T15:45:23;27.70;97.40
13231;DHT22;6681;53.254;10.398;2022-08-21T15:47:50;27.80;97.20
13231;DHT22;6681;53.254;10.398;2022-08-21T15:50:17;25.20;95.00
13231;DHT22;6681;53.254;10.398;2022-08-21T15:52:43;27.80;96.90
13231;DHT22;6681;53.254;10.398;2022-08-21T15:55:10;27.90;96.90
13231;DHT22;6681;53.254;10.398;2022-08-21T15:57:36;27.90;96.30
13231;DHT22;6681;53.254;10.398;2022-08-21T16:00:15;28.00;95.40
13231;DHT22;6681;53.254;10.398;2022-08-21T16:02:47;28.10;96.80
13231;DHT22;6681;53.254;10.398;2022-08-21T16:05:14;28.20;96.10
13231;DHT22;6681;53.254;10.398;2022-08-21T16:07:42;28.10;94.70
13231;DHT22;6681;53.254;10.398;2022-08-21T16:10:09;28.10;98.50
13231;DHT22;6681;53.254;10.398;2022-08-21T16:12:41;28.20;95.00
13231;DHT22;6681;53.254;10.398;2022-08-21T16:15:09;28.10;98.30
13231;DHT22;6681;53.254;10.398;2022-08-21T16:17:37;28.20;97.30
13231;DHT22;6681;53.254;10.398;2022-08-21T16:20:10;28.20;95.60
13231;DHT22;6681;53.254;10.398;2022-08-21T16:22:36;28.40;94.90
13231;DHT22;6681;53.254;10.398;2022-08-21T16:25:03;28.40;94.70
13231;DHT22;6681;53.254;10.398;2022-08-21T16:27:29;28.50;94.90
13231;DHT22;6681;53.254;10.398;2022-08-21T16:29:55;28.30;94.60
13231;DHT22;6681;53.254;10.398;2022-08-21T16:32:21;28.20;92.60
13231;DHT22;6681;53.254;10.398;2022-08-21T16:34:48;28.20;92.60
13231;DHT22;6681;53.254;10.398;2022-08-21T16:37:15;28.00;93.90
13231;DHT22;6681;53.254;10.398;2022-08-21T16:39:41;27.80;94.70